Time;durP1;ratioP1;P1;durP2;ratioP2;P2;SDS_P1;SDS_P2;PMS_P1;PMS_P2;Temp;Humidity;BMP_temperature;BMP_pressure;BME280_temperature;BME280_humidity;BME280_pressure;Samples;Min_cycle;Max_cycle;Signal;HPM_P1;HPM_P2
2023/01/13 00:00:31;;;;;;;3.33;2.00;;;;;;;;;;5072994;28;20021;-75
2023/01/13 00:02:57;;;;;;;5.43;2.13;;;;;;;;;;5073282;28;20028;-73
2023/01/13 00:05:24;;;;;;;3.45;2.20;;;;;;;;;;5073391;28;20029;-73
2023/01/13 00:07:50;;;;;;;2.70;1.58;;;;;;;;;;5073482;28;20025;-74
2023/01/13 00:10:16;;;;;;;2.70;1.88;;;;;;;;;;5072501;28;20100;-74
2023/01/13 00:12:42;;;;;;;3.35;1.75;;;;;;;;;;5073772;28;20044;-75
2023/01/13 00:15:09;;;;;;;3.08;1.80;;;;;;;;;;5074084;28;20025;-73
2023/01/13 00:17:35;;;;;;;4.85;2.30;;;;;;;;;;5073640;28;20025;-74
2023/01/13 00:20:01;;;;;;;3.55;1.80;;;;;;;;;;5074018;28;20028;-75
2023/01/13 00:22:26;;;;;;;4.75;1.90;;;;;;;;;;5074180;28;20496;-75
2023/01/13 00:24:52;;;;;;;2.90;2.05;;;;;;;;;;5074023;28;20069;-74
2023/01/13 00:27:18;;;;;;;4.20;1.70;;;;;;;;;;5073386;28;20399;-75
2023/01/13 00:29:44;;;;;;;5.68;1.58;;;;;;;;;;5074119;28;20025;-74
2023/01/13 00:32:10;;;;;;;8.57;1.90;;;;;;;;;;5073563;28;20028;-74
2023/01/13 00:34:36;;;;;;;4.38;1.20;;;;;;;;;;5073767;28;20027;-73
2023/01/13 00:37:02;;;;;;;7.50;1.25;;;;;;;;;;5073130;28;20040;-75
2023/01/13 00:39:28;;;;;;;6.40;1.30;;;;;;;;;;5073746;28;20078;-75
2023/01/13 00:44:39;;;;;;;5.95;1.20;;;;;;;;;;5073975;28;20499;-75
2023/01/13 00:47:05;;;;;;;5.78;1.30;;;;;;;;;;5072678;28;20119;-76
2023/01/13 00:49:30;;;;;;;4.60;1.30;;;;;;;;;;5073761;28;20095;-75
2023/01/13 00:51:56;;;;;;;8.93;1.50;;;;;;;;;;5073301;28;20074;-75
2023/01/13 00:54:22;;;;;;;11.20;1.58;;;;;;;;;;5073503;28;20231;-75
2023/01/13 00:56:48;;;;;;;10.15;1.30;;;;;;;;;;5072641;28;20031;-76
2023/01/13 00:59:14;;;;;;;8.95;1.70;;;;;;;;;;5073378;28;20094;-74
2023/01/13 01:01:41;;;;;;;11.10;1.67;;;;;;;;;;5069069;28;20103;-74
2023/01/13 01:04:07;;;;;;;6.55;1.23;;;;;;;;;;5073042;28;20104;-74
2023/01/13 01:06:33;;;;;;;12.15;2.15;;;;;;;;;;5071717;28;20051;-74
2023/01/13 01:08:59;;;;;;;8.82;1.70;;;;;;;;;;5072910;28;20130;-75
2023/01/13 01:11:26;;;;;;;10.30;1.55;;;;;;;;;;5072620;28;20596;-76
2023/01/13 01:13:53;;;;;;;9.43;1.48;;;;;;;;;;5072411;28;20077;-75
2023/01/13 01:16:20;;;;;;;10.38;1.83;;;;;;;;;;5072631;28;20031;-73
2023/01/13 01:18:47;;;;;;;15.05;2.05;;;;;;;;;;5073075;28;20382;-75
2023/01/13 01:21:13;;;;;;;10.02;1.20;;;;;;;;;;5054811;28;20109;-73
2023/01/13 01:23:39;;;;;;;9.98;1.75;;;;;;;;;;5072792;28;20037;-74
2023/01/13 01:26:06;;;;;;;7.55;1.48;;;;;;;;;;5071945;28;20036;-74
2023/01/13 01:28:33;;;;;;;13.18;1.73;;;;;;;;;;5054815;28;20046;-74
2023/01/13 01:31:00;;;;;;;14.98;2.03;;;;;;;;;;5072386;28;20029;-74
2023/01/13 01:33:26;;;;;;;11.60;1.90;;;;;;;;;;5072578;28;20024;-74
2023/01/13 01:35:53;;;;;;;8.43;1.73;;;;;;;;;;5072006;28;20462;-74
2023/01/13 01:38:21;;;;;;;11.60;1.90;;;;;;;;;;5073353;28;20525;-74
2023/01/13 01:40:47;;;;;;;12.20;2.17;;;;;;;;;;5072856;28;20052;-74
2023/01/13 01:46:15;;;;;;;23.02;2.60;;;;;;;;;;5038435;28;20413;-74
2023/01/13 01:48:41;;;;;;;19.85;2.38;;;;;;;;;;5073563;28;20024;-73
2023/01/13 01:51:09;;;;;;;22.23;2.58;;;;;;;;;;5072848;28;20041;-73
2023/01/13 01:53:35;;;;;;;23.73;2.85;;;;;;;;;;5072648;28;20020;-73
2023/01/13 01:56:02;;;;;;;21.42;3.22;;;;;;;;;;5071940;28;20059;-73
2023/01/13 01:58:35;;;;;;;20.10;2.67;;;;;;;;;;5074141;28;20477;-74
2023/01/13 02:01:00;;;;;;;19.20;2.80;;;;;;;;;;5072951;28;20032;-75
2023/01/13 02:03:27;;;;;;;29.65;3.38;;;;;;;;;;5073206;28;20029;-74
2023/01/13 02:05:53;;;;;;;18.10;2.67;;;;;;;;;;5072664;28;20100;-74
2023/01/13 02:08:19;;;;;;;24.38;3.58;;;;;;;;;;5072505;28;20036;-74
2023/01/13 02:10:46;;;;;;;20.67;3.25;;;;;;;;;;5072006;28;20024;-74
2023/01/13 02:13:13;;;;;;;24.17;3.28;;;;;;;;;;5072504;28;20081;-74
2023/01/13 02:15:46;;;;;;;25.52;2.95;;;;;;;;;;5071677;28;20085;-75
2023/01/13 02:18:30;;;;;;;28.40;4.15;;;;;;;;;;5071997;28;20067;-75
2023/01/13 02:21:15;;;;;;;30.90;3.75;;;;;;;;;;5070217;28;20555;-75
2023/01/13 02:26:49;;;;;;;28.80;4.45;;;;;;;;;;5071412;28;20066;-74
2023/01/13 02:32:39;;;;;;;30.52;3.78;;;;;;;;;;5069462;28;20113;-74
2023/01/13 02:35:24;;;;;;;34.10;3.47;;;;;;;;;;5072112;28;20033;-75
2023/01/13 02:37:51;;;;;;;24.13;3.75;;;;;;;;;;5071939;28;20031;-74
2023/01/13 02:40:25;;;;;;;27.38;4.00;;;;;;;;;;5071709;28;20052;-75
2023/01/13 02:46:09;;;;;;;26.17;3.47;;;;;;;;;;5071229;28;20503;-75
2023/01/13 02:48:37;;;;;;;27.30;3.30;;;;;;;;;;5025911;28;20049;-74
2023/01/13 02:51:09;;;;;;;27.15;4.20;;;;;;;;;;5071297;28;20035;-76
2023/01/13 02:53:41;;;;;;;22.67;3.42;;;;;;;;;;5071521;28;20024;-74
2023/01/13 02:56:08;;;;;;;28.10;3.78;;;;;;;;;;5070975;28;20420;-75
2023/01/13 02:58:35;;;;;;;29.02;4.32;;;;;;;;;;5071334;28;20017;-76
2023/01/13 03:01:01;;;;;;;33.58;4.75;;;;;;;;;;5071280;28;20470;-74
2023/01/13 03:03:27;;;;;;;26.48;4.03;;;;;;;;;;5071397;28;20032;-74
2023/01/13 03:05:55;;;;;;;27.05;4.32;;;;;;;;;;5070740;28;20040;-74
2023/01/13 03:08:32;;;;;;;26.70;4.05;;;;;;;;;;5071179;28;20033;-75
2023/01/13 03:11:02;;;;;;;31.33;4.32;;;;;;;;;;5071232;28;20052;-75
2023/01/13 03:13:42;;;;;;;30.50;3.53;;;;;;;;;;5071410;28;20477;-74
2023/01/13 03:16:23;;;;;;;43.60;5.60;;;;;;;;;;5070903;28;20033;-75
2023/01/13 03:18:58;;;;;;;37.13;5.30;;;;;;;;;;5070430;28;20416;-75
2023/01/13 03:21:43;;;;;;;31.05;4.47;;;;;;;;;;5071703;28;20035;-75
2023/01/13 03:24:35;;;;;;;27.85;3.67;;;;;;;;;;5071555;28;20029;-74
2023/01/13 03:27:06;;;;;;;30.77;3.70;;;;;;;;;;5066884;28;20053;-74
2023/01/13 03:29:35;;;;;;;34.38;4.45;;;;;;;;;;5071522;28;20032;-74
2023/01/13 03:32:13;;;;;;;30.13;3.75;;;;;;;;;;5071348;28;20112;-75
2023/01/13 03:34:44;;;;;;;26.35;4.35;;;;;;;;;;5071329;28;20110;-74
2023/01/13 03:37:12;;;;;;;27.13;4.28;;;;;;;;;;5074034;28;20070;-73
2023/01/13 03:39:40;;;;;;;28.23;4.43;;;;;;;;;;5074744;28;20063;-73
2023/01/13 03:42:14;;;;;;;29.90;3.58;;;;;;;;;;5074628;28;20067;-75
2023/01/13 03:44:44;;;;;;;30.63;3.15;;;;;;;;;;5074824;28;20028;-75
2023/01/13 03:47:10;;;;;;;32.90;4.03;;;;;;;;;;5074228;28;20032;-74
2023/01/13 03:49:36;;;;;;;27.98;4.35;;;;;;;;;;5074716;28;20066;-74
2023/01/13 03:52:03;;;;;;;41.83;4.53;;;;;;;;;;5074269;28;20028;-74
2023/01/13 03:54:30;;;;;;;44.85;4.80;;;;;;;;;;5075146;28;20050;-75
2023/01/13 03:56:58;;;;;;;41.42;5.85;;;;;;;;;;5075204;28;20113;-74
2023/01/13 03:59:27;;;;;;;48.80;5.40;;;;;;;;;;5074439;28;20103;-74
2023/01/13 04:02:02;;;;;;;39.60;5.53;;;;;;;;;;5074304;28;20025;-74
2023/01/13 04:04:34;;;;;;;47.25;5.30;;;;;;;;;;5074378;28;20031;-74
2023/01/13 04:07:17;;;;;;;49.17;5.53;;;;;;;;;;5075502;28;20029;-74
2023/01/13 04:09:54;;;;;;;45.40;5.38;;;;;;;;;;5075014;28;20052;-75
2023/01/13 04:12:26;;;;;;;57.90;6.55;;;;;;;;;;5074967;28;20025;-76
2023/01/13 04:14:53;;;;;;;45.15;6.05;;;;;;;;;;5074190;28;20058;-75
2023/01/13 04:17:19;;;;;;;47.47;5.80;;;;;;;;;;5074406;28;20023;-74
2023/01/13 04:19:45;;;;;;;51.80;6.57;;;;;;;;;;5074916;28;20029;-73
2023/01/13 04:22:11;;;;;;;52.92;6.57;;;;;;;;;;5074391;28;20031;-74
2023/01/13 04:24:37;;;;;;;45.33;6.28;;;;;;;;;;5075013;28;20032;-74
2023/01/13 04:27:03;;;;;;;57.03;7.15;;;;;;;;;;5074385;28;20075;-74
2023/01/13 04:29:29;;;;;;;56.20;6.60;;;;;;;;;;5074780;28;20025;-73
2023/01/13 04:31:55;;;;;;;45.67;5.80;;;;;;;;;;5074636;28;20031;-73
2023/01/13 04:34:21;;;;;;;51.40;7.15;;;;;;;;;;5075219;28;20486;-74
2023/01/13 04:36:47;;;;;;;46.38;6.20;;;;;;;;;;5073936;28;20060;-75
2023/01/13 04:39:13;;;;;;;50.53;6.50;;;;;;;;;;5074422;28;20028;-74
2023/01/13 04:41:57;;;;;;;47.63;5.45;;;;;;;;;;5074005;28;20055;-75
2023/01/13 04:44:23;;;;;;;50.97;5.80;;;;;;;;;;5074836;28;20036;-76
2023/01/13 04:46:49;;;;;;;49.28;6.03;;;;;;;;;;5072450;28;20489;-75
2023/01/13 04:49:15;;;;;;;43.30;5.32;;;;;;;;;;5073560;28;20532;-75
2023/01/13 04:51:41;;;;;;;52.17;6.13;;;;;;;;;;5073361;28;20020;-74
2023/01/13 04:54:07;;;;;;;54.97;6.32;;;;;;;;;;5073539;28;20021;-75
2023/01/13 04:56:32;;;;;;;49.97;5.63;;;;;;;;;;5072717;28;20081;-74
2023/01/13 04:58:58;;;;;;;54.30;6.75;;;;;;;;;;5073400;28;20029;-76
2023/01/13 05:01:24;;;;;;;53.13;5.57;;;;;;;;;;5073227;28;20394;-75
2023/01/13 05:03:50;;;;;;;49.90;5.93;;;;;;;;;;5073265;28;20029;-75
2023/01/13 05:06:16;;;;;;;59.03;5.78;;;;;;;;;;5072577;28;20028;-74
2023/01/13 05:08:42;;;;;;;49.80;6.13;;;;;;;;;;5073346;28;20028;-75
2023/01/13 05:19:38;;;;;;;45.65;5.63;;;;;;;;;;5028386;28;20028;-75
2023/01/13 05:27:33;;;;;;;59.40;6.82;;;;;;;;;;5072463;28;20078;-77
2023/01/13 05:29:59;;;;;;;61.70;6.95;;;;;;;;;;5073679;28;20393;-76
2023/01/13 05:32:28;;;;;;;63.50;7.45;;;;;;;;;;5073342;28;20040;-76
2023/01/13 05:34:55;;;;;;;41.35;5.80;;;;;;;;;;5072838;28;20025;-75
2023/01/13 05:37:21;;;;;;;44.63;5.40;;;;;;;;;;5069930;28;20568;-75
2023/01/13 05:45:17;;;;;;;57.83;6.50;;;;;;;;;;5071950;28;20047;-76
2023/01/13 05:47:43;;;;;;;42.08;4.72;;;;;;;;;;5073370;28;20402;-76
2023/01/13 05:50:09;;;;;;;59.85;6.15;;;;;;;;;;5072141;28;20099;-77
2023/01/13 05:52:35;;;;;;;59.10;6.82;;;;;;;;;;5074153;28;20028;-74
2023/01/13 05:55:01;;;;;;;55.80;6.47;;;;;;;;;;5074991;28;20028;-74
2023/01/13 05:57:27;;;;;;;63.28;6.43;;;;;;;;;;5084975;28;20045;-76
2023/01/13 05:59:53;;;;;;;49.75;6.07;;;;;;;;;;5096479;28;20048;-77
2023/01/13 06:02:19;;;;;;;52.03;6.25;;;;;;;;;;5096580;28;20063;-77
2023/01/13 06:04:45;;;;;;;44.67;6.18;;;;;;;;;;5096948;28;20080;-79
2023/01/13 06:07:11;;;;;;;46.67;6.13;;;;;;;;;;5094160;28;20050;-76
2023/01/13 06:09:37;;;;;;;44.42;5.63;;;;;;;;;;5073512;28;20029;-76
2023/01/13 06:12:03;;;;;;;58.00;6.55;;;;;;;;;;5072732;28;20028;-78
2023/01/13 06:14:38;;;;;;;53.25;6.45;;;;;;;;;;5072968;28;20029;-76
2023/01/13 06:17:08;;;;;;;56.60;6.18;;;;;;;;;;5072523;28;20074;-75
2023/01/13 06:19:34;;;;;;;58.30;7.80;;;;;;;;;;5065598;28;20432;-75
2023/01/13 06:22:03;;;;;;;48.83;6.43;;;;;;;;;;5072210;28;20412;-75
2023/01/13 06:24:29;;;;;;;59.38;6.88;;;;;;;;;;5072213;28;20025;-76
2023/01/13 06:26:55;;;;;;;55.20;6.30;;;;;;;;;;5073036;28;20116;-75
2023/01/13 06:29:21;;;;;;;57.03;6.93;;;;;;;;;;5072311;28;20081;-74
2023/01/13 06:31:47;;;;;;;62.88;6.93;;;;;;;;;;5072758;28;20024;-76
2023/01/13 06:34:14;;;;;;;40.38;5.53;;;;;;;;;;5073426;28;20474;-77
2023/01/13 06:36:42;;;;;;;43.97;5.65;;;;;;;;;;5072613;28;20024;-75
2023/01/13 06:39:10;;;;;;;62.63;6.40;;;;;;;;;;5072596;28;20017;-77
2023/01/13 06:44:21;;;;;;;;;;;;;;;;;;5074673;28;20452;-75
2023/01/13 06:46:47;;;;;;;60.67;6.38;;;;;;;;;;5072069;28;19912;-75
2023/01/13 06:49:13;;;;;;;49.50;6.25;;;;;;;;;;5071591;28;20034;-76
2023/01/13 06:51:38;;;;;;;49.17;6.72;;;;;;;;;;5071508;28;20529;-75
2023/01/13 06:54:04;;;;;;;46.17;7.07;;;;;;;;;;5071968;28;20484;-76
2023/01/13 06:56:30;;;;;;;50.13;6.00;;;;;;;;;;5071484;28;20036;-76
2023/01/13 06:58:56;;;;;;;44.80;5.55;;;;;;;;;;5071719;28;20017;-75
2023/01/13 07:01:22;;;;;;;43.83;6.00;;;;;;;;;;5074096;28;20101;-77
2023/01/13 07:03:48;;;;;;;43.17;5.80;;;;;;;;;;5072162;28;20056;-75
2023/01/13 07:06:14;;;;;;;41.90;5.88;;;;;;;;;;5071212;28;20401;-75
2023/01/13 07:08:40;;;;;;;55.65;5.75;;;;;;;;;;5072422;28;20029;-75
2023/01/13 07:11:06;;;;;;;61.13;7.13;;;;;;;;;;5074395;28;20024;-76
2023/01/13 07:16:18;;;;;;;49.50;6.07;;;;;;;;;;5075130;28;20392;-74
2023/01/13 07:18:44;;;;;;;50.20;6.65;;;;;;;;;;5075682;28;20017;-76
2023/01/13 07:21:17;;;;;;;45.78;6.55;;;;;;;;;;5076537;28;20029;-75
2023/01/13 07:23:43;;;;;;;49.88;6.15;;;;;;;;;;5077648;28;20020;-74
2023/01/13 07:26:10;;;;;;;42.03;5.50;;;;;;;;;;5075786;28;20024;-75
2023/01/13 07:28:36;;;;;;;46.03;5.63;;;;;;;;;;5075231;28;20036;-74
2023/01/13 07:31:02;;;;;;;49.17;6.07;;;;;;;;;;5077086;28;20256;-74
2023/01/13 07:33:31;;;;;;;44.45;6.80;;;;;;;;;;5075559;28;20453;-76
2023/01/13 07:35:59;;;;;;;56.60;6.00;;;;;;;;;;5074807;28;20043;-76
2023/01/13 07:38:25;;;;;;;58.72;6.57;;;;;;;;;;5074970;28;20063;-76
2023/01/13 07:40:51;;;;;;;47.92;5.25;;;;;;;;;;5074434;28;20074;-74
2023/01/13 07:43:32;;;;;;;51.85;6.63;;;;;;;;;;5074452;28;20111;-75
2023/01/13 07:45:59;;;;;;;52.55;6.95;;;;;;;;;;5073870;28;20039;-75
2023/01/13 07:48:26;;;;;;;57.92;6.78;;;;;;;;;;5075241;28;20374;-75
2023/01/13 07:50:52;;;;;;;50.75;5.88;;;;;;;;;;5074033;28;20052;-76
2023/01/13 07:53:18;;;;;;;55.83;6.25;;;;;;;;;;5074480;28;20505;-74
2023/01/13 07:55:44;;;;;;;57.65;7.65;;;;;;;;;;5073552;28;20025;-75
2023/01/13 07:58:11;;;;;;;52.58;6.78;;;;;;;;;;5074621;28;20036;-75
2023/01/13 08:00:37;;;;;;;60.08;7.95;;;;;;;;;;5075074;28;20105;-75
2023/01/13 08:03:03;;;;;;;43.35;6.13;;;;;;;;;;5074894;28;20092;-76
2023/01/13 08:05:29;;;;;;;63.20;7.68;;;;;;;;;;5074845;28;20024;-75
2023/01/13 08:07:55;;;;;;;46.05;6.28;;;;;;;;;;5074470;28;20025;-76
2023/01/13 08:10:21;;;;;;;66.47;8.63;;;;;;;;;;5074243;28;20016;-76
2023/01/13 08:15:33;;;;;;;47.97;6.45;;;;;;;;;;5073992;28;20116;-76
2023/01/13 08:17:59;;;;;;;54.85;6.95;;;;;;;;;;5074659;28;20020;-77
2023/01/13 08:20:25;;;;;;;47.85;6.10;;;;;;;;;;5074159;28;20033;-74
2023/01/13 08:22:55;;;;;;;55.03;6.57;;;;;;;;;;5073799;28;20020;-76
2023/01/13 08:25:21;;;;;;;49.30;6.63;;;;;;;;;;5074289;28;20025;-76
2023/01/13 08:27:48;;;;;;;47.60;6.00;;;;;;;;;;5056204;28;20538;-75
2023/01/13 08:30:14;;;;;;;57.85;6.18;;;;;;;;;;5074146;28;20028;-76
2023/01/13 08:32:43;;;;;;;57.70;7.10;;;;;;;;;;5073851;28;20025;-75
2023/01/13 08:35:09;;;;;;;45.72;6.05;;;;;;;;;;5074367;28;20028;-75
2023/01/13 08:37:35;;;;;;;49.08;6.10;;;;;;;;;;5073534;28;20028;-75
2023/01/13 08:40:00;;;;;;;52.78;6.25;;;;;;;;;;5074210;28;20588;-74
2023/01/13 08:42:26;;;;;;;58.17;7.47;;;;;;;;;;5073702;28;20029;-74
2023/01/13 08:44:53;;;;;;;52.58;6.32;;;;;;;;;;5073665;28;20028;-74
2023/01/13 08:47:19;;;;;;;41.22;5.90;;;;;;;;;;5073929;28;20070;-75
2023/01/13 08:49:45;;;;;;;50.50;5.75;;;;;;;;;;5073853;28;20086;-77
2023/01/13 08:52:11;;;;;;;52.00;6.70;;;;;;;;;;5074512;28;20025;-75
2023/01/13 08:54:38;;;;;;;48.53;5.88;;;;;;;;;;5074862;28;20028;-73
2023/01/13 08:57:05;;;;;;;55.65;5.90;;;;;;;;;;5075250;28;20024;-74
2023/01/13 08:59:31;;;;;;;51.08;6.93;;;;;;;;;;5075105;28;20570;-75
2023/01/13 09:01:57;;;;;;;45.25;5.93;;;;;;;;;;5074013;28;20436;-76
2023/01/13 09:04:24;;;;;;;50.47;5.90;;;;;;;;;;5077589;28;20024;-77
2023/01/13 09:06:50;;;;;;;42.22;5.90;;;;;;;;;;5073757;28;20032;-76
2023/01/13 09:09:17;;;;;;;54.15;7.40;;;;;;;;;;5073894;28;20032;-76
2023/01/13 09:14:31;;;;;;;49.13;6.22;;;;;;;;;;5075060;28;20035;-76
2023/01/13 09:16:57;;;;;;;40.28;5.80;;;;;;;;;;5072349;28;20104;-74
2023/01/13 09:19:23;;;;;;;45.42;6.25;;;;;;;;;;5073394;28;20028;-75
2023/01/13 09:21:51;;;;;;;41.63;6.30;;;;;;;;;;5073734;28;20032;-77
2023/01/13 09:24:17;;;;;;;48.25;6.13;;;;;;;;;;5075666;28;20024;-76
2023/01/13 09:26:43;;;;;;;44.80;5.35;;;;;;;;;;5073278;28;20067;-76
2023/01/13 09:29:09;;;;;;;34.88;5.28;;;;;;;;;;5073028;28;20032;-76
2023/01/13 09:31:35;;;;;;;32.65;4.43;;;;;;;;;;5072944;28;20107;-76
2023/01/13 09:36:46;;;;;;;;;;;;;;;;;;5072660;28;20509;-77
2023/01/13 09:39:12;;;;;;;40.47;4.72;;;;;;;;;;5073288;28;19908;-76
2023/01/13 09:44:28;;;;;;;31.65;4.57;;;;;;;;;;5073264;28;20047;-77
2023/01/13 09:46:56;;;;;;;34.55;4.68;;;;;;;;;;5072680;28;20036;-76
2023/01/13 09:49:24;;;;;;;34.38;5.07;;;;;;;;;;5074204;28;20552;-76
2023/01/13 09:51:57;;;;;;;34.25;4.28;;;;;;;;;;5076044;28;20028;-78
2023/01/13 09:54:31;;;;;;;34.10;4.80;;;;;;;;;;5076067;28;20484;-75
2023/01/13 09:56:58;;;;;;;40.17;4.68;;;;;;;;;;5072858;28;20409;-80
2023/01/13 09:59:26;;;;;;;40.53;4.53;;;;;;;;;;5074284;28;20092;-77
2023/01/13 10:01:52;;;;;;;41.88;4.68;;;;;;;;;;5072515;28;20078;-77
2023/01/13 10:04:18;;;;;;;47.28;4.50;;;;;;;;;;5072915;28;20038;-77
2023/01/13 10:06:47;;;;;;;25.20;3.88;;;;;;;;;;5073074;28;20086;-75
2023/01/13 10:09:29;;;;;;;29.50;3.92;;;;;;;;;;5083467;28;20107;-77
2023/01/13 10:14:45;;;;;;;33.28;4.63;;;;;;;;;;5072970;28;20128;-75
2023/01/13 10:17:16;;;;;;;30.75;4.82;;;;;;;;;;5072590;28;20028;-75
2023/01/13 10:19:57;;;;;;;35.92;5.13;;;;;;;;;;5074805;28;20028;-74
2023/01/13 10:22:41;;;;;;;28.92;5.07;;;;;;;;;;5071942;28;20032;-75
2023/01/13 10:25:19;;;;;;;39.15;5.70;;;;;;;;;;5053930;28;20115;-75
2023/01/13 10:27:48;;;;;;;24.70;4.35;;;;;;;;;;5071706;28;20100;-76
2023/01/13 10:30:20;;;;;;;35.00;3.63;;;;;;;;;;5072383;28;20028;-76
2023/01/13 10:32:50;;;;;;;28.55;4.20;;;;;;;;;;5078474;28;20478;-79
2023/01/13 10:35:16;;;;;;;22.73;3.60;;;;;;;;;;5062591;28;20016;-76
2023/01/13 10:37:55;;;;;;;26.77;3.28;;;;;;;;;;5077481;28;20493;-76
2023/01/13 10:40:20;;;;;;;29.73;4.78;;;;;;;;;;5075012;28;20065;-77
2023/01/13 10:42:46;;;;;;;27.77;3.42;;;;;;;;;;5073725;28;20035;-79
2023/01/13 10:45:23;;;;;;;29.17;3.67;;;;;;;;;;5075283;28;20029;-80
2023/01/13 10:48:02;;;;;;;36.53;4.78;;;;;;;;;;5078931;28;20058;-76
2023/01/13 10:50:30;;;;;;;26.38;3.40;;;;;;;;;;5081013;28;20158;-77
2023/01/13 10:53:15;;;;;;;29.38;3.78;;;;;;;;;;5077867;28;20385;-76
2023/01/13 10:55:42;;;;;;;26.38;3.40;;;;;;;;;;5075988;28;20033;-76
2023/01/13 10:58:12;;;;;;;23.20;3.60;;;;;;;;;;5076896;28;20359;-75
2023/01/13 11:00:38;;;;;;;26.02;4.75;;;;;;;;;;5077422;28;20078;-75
2023/01/13 11:03:17;;;;;;;27.98;3.75;;;;;;;;;;5076989;28;20397;-77
2023/01/13 11:05:48;;;;;;;24.77;3.70;;;;;;;;;;5075641;28;20033;-77
2023/01/13 11:08:18;;;;;;;23.33;3.80;;;;;;;;;;5076184;28;20111;-76
2023/01/13 11:10:45;;;;;;;21.98;2.97;;;;;;;;;;5075784;28;20036;-74
2023/01/13 11:13:23;;;;;;;18.88;3.13;;;;;;;;;;5075654;28;20098;-76
2023/01/13 11:15:52;;;;;;;20.58;3.28;;;;;;;;;;5074900;28;20024;-76
2023/01/13 11:18:36;;;;;;;24.42;3.70;;;;;;;;;;5075536;28;20012;-76
2023/01/13 11:21:05;;;;;;;26.70;3.53;;;;;;;;;;5076424;28;20035;-77
2023/01/13 11:23:36;;;;;;;19.77;4.07;;;;;;;;;;5077745;28;20058;-77
2023/01/13 11:26:06;;;;;;;23.60;3.83;;;;;;;;;;5076845;28;20048;-76
2023/01/13 11:28:44;;;;;;;22.10;3.15;;;;;;;;;;5082459;28;20090;-75
2023/01/13 11:31:29;;;;;;;23.67;3.55;;;;;;;;;;5077375;28;20071;-74
2023/01/13 11:34:12;;;;;;;29.23;3.35;;;;;;;;;;5075611;28;20107;-75
2023/01/13 11:36:39;;;;;;;19.15;3.53;;;;;;;;;;5075674;28;20028;-75
2023/01/13 11:39:16;;;;;;;22.90;3.70;;;;;;;;;;5077068;28;20028;-75
2023/01/13 11:42:19;;;;;;;29.55;3.45;;;;;;;;;;5078057;28;20036;-76
2023/01/13 11:44:45;;;;;;;21.25;3.58;;;;;;;;;;5077500;28;20090;-75
2023/01/13 11:47:12;;;;;;;22.50;4.43;;;;;;;;;;5075642;28;20125;-76
2023/01/13 11:49:37;;;;;;;31.17;4.93;;;;;;;;;;5074912;28;20487;-77
2023/01/13 11:52:06;;;;;;;21.15;3.58;;;;;;;;;;5075767;28;20024;-75
2023/01/13 11:54:42;;;;;;;30.40;4.35;;;;;;;;;;5075307;28;20032;-76
2023/01/13 11:57:11;;;;;;;22.75;3.55;;;;;;;;;;5074116;28;20078;-75
2023/01/13 11:59:40;;;;;;;23.70;3.58;;;;;;;;;;5075799;28;20107;-75
2023/01/13 12:02:17;;;;;;;20.73;3.20;;;;;;;;;;5075385;28;20481;-75
2023/01/13 12:04:49;;;;;;;25.13;3.50;;;;;;;;;;5075614;28;20032;-75
2023/01/13 12:07:14;;;;;;;17.40;3.38;;;;;;;;;;5074990;28;20025;-76
2023/01/13 12:09:46;;;;;;;24.63;3.88;;;;;;;;;;5075517;28;20051;-76
2023/01/13 12:12:26;;;;;;;23.73;3.35;;;;;;;;;;5074184;28;20029;-76
2023/01/13 12:15:17;;;;;;;26.60;3.95;;;;;;;;;;5074183;28;20024;-77
2023/01/13 12:17:54;;;;;;;23.00;3.60;;;;;;;;;;5073935;28;20028;-76
2023/01/13 12:20:26;;;;;;;22.15;3.30;;;;;;;;;;5074504;28;20081;-76
2023/01/13 12:22:53;;;;;;;29.20;4.18;;;;;;;;;;5074011;28;20050;-76
2023/01/13 12:25:19;;;;;;;26.08;4.15;;;;;;;;;;5073746;28;20077;-74
2023/01/13 12:27:55;;;;;;;24.27;3.83;;;;;;;;;;5073443;28;20024;-78
2023/01/13 12:30:24;;;;;;;22.33;4.55;;;;;;;;;;5075473;28;20103;-76
2023/01/13 12:32:52;;;;;;;27.77;4.07;;;;;;;;;;5075913;28;20115;-76
2023/01/13 12:35:20;;;;;;;27.40;4.35;;;;;;;;;;5075606;28;20024;-76
2023/01/13 12:37:51;;;;;;;36.45;10.13;;;;;;;;;;5073312;28;20087;-76
2023/01/13 12:40:33;;;;;;;28.20;5.72;;;;;;;;;;5076435;28;20027;-76
2023/01/13 12:45:47;;;;;;;26.30;4.57;;;;;;;;;;5073499;28;20058;-76
2023/01/13 12:48:31;;;;;;;33.85;5.15;;;;;;;;;;5073557;28;20111;-74
2023/01/13 12:50:59;;;;;;;26.08;4.25;;;;;;;;;;5055147;28;20033;-73
2023/01/13 12:53:31;;;;;;;24.27;3.38;;;;;;;;;;5073119;28;20033;-75
2023/01/13 12:56:15;;;;;;;30.10;4.70;;;;;;;;;;5073089;28;20024;-74
2023/01/13 12:58:41;;;;;;;29.33;4.47;;;;;;;;;;5073838;28;20104;-75
2023/01/13 13:01:11;;;;;;;29.52;4.75;;;;;;;;;;5074068;28;20029;-75
2023/01/13 13:03:37;;;;;;;30.02;5.65;;;;;;;;;;5073286;28;20025;-75
2023/01/13 13:06:03;;;;;;;27.35;4.25;;;;;;;;;;5074050;28;20044;-76
2023/01/13 13:08:31;;;;;;;31.08;4.60;;;;;;;;;;5072686;28;20020;-76
2023/01/13 13:13:56;;;;;;;29.10;3.95;;;;;;;;;;5073414;28;20034;-75
2023/01/13 13:16:26;;;;;;;35.22;4.53;;;;;;;;;;5072513;28;20071;-76
2023/01/13 13:18:52;;;;;;;24.75;3.42;;;;;;;;;;5072548;28;20024;-75
2023/01/13 13:21:18;;;;;;;26.38;4.47;;;;;;;;;;5072497;28;20028;-76
2023/01/13 13:24:01;;;;;;;21.80;4.25;;;;;;;;;;5072941;28;20070;-76
2023/01/13 13:26:30;;;;;;;23.30;2.83;;;;;;;;;;5072543;28;20484;-75
2023/01/13 13:29:05;;;;;;;22.75;3.67;;;;;;;;;;5072697;28;20412;-75
2023/01/13 13:31:40;;;;;;;23.75;3.50;;;;;;;;;;5072695;28;20166;-75
2023/01/13 13:34:06;;;;;;;19.13;3.10;;;;;;;;;;5054910;28;20458;-76
2023/01/13 13:36:46;;;;;;;25.80;3.67;;;;;;;;;;5072468;28;20158;-75
2023/01/13 13:47:44;;;;;;;20.88;3.45;;;;;;;;;;5070158;28;20039;-80
2023/01/13 13:50:13;;;;;;;18.90;3.03;;;;;;;;;;5073122;28;20020;-75
2023/01/13 13:52:42;;;;;;;23.58;3.38;;;;;;;;;;5073819;28;20439;-76
2023/01/13 13:55:19;;;;;;;26.17;3.67;;;;;;;;;;5073484;28;20119;-76
2023/01/13 13:57:46;;;;;;;21.85;3.25;;;;;;;;;;5065828;28;20389;-74
2023/01/13 14:00:20;;;;;;;22.42;3.55;;;;;;;;;;5072280;28;20017;-75
2023/01/13 14:03:00;;;;;;;20.03;3.33;;;;;;;;;;5072557;28;20086;-76
2023/01/13 14:05:36;;;;;;;30.80;4.03;;;;;;;;;;5072046;28;20025;-76
2023/01/13 14:08:09;;;;;;;30.15;3.47;;;;;;;;;;5072873;28;20029;-74
2023/01/13 14:10:36;;;;;;;19.73;4.30;;;;;;;;;;5064802;28;20021;-74
2023/01/13 14:13:12;;;;;;;25.00;3.67;;;;;;;;;;5071708;28;20078;-78
2023/01/13 14:15:39;;;;;;;28.30;4.07;;;;;;;;;;5063265;28;20029;-74
2023/01/13 14:18:10;;;;;;;19.30;3.35;;;;;;;;;;5071532;28;20028;-75
2023/01/13 14:20:36;;;;;;;27.20;3.30;;;;;;;;;;5066937;28;20024;-75
2023/01/13 14:23:04;;;;;;;22.50;3.80;;;;;;;;;;5071892;28;20033;-74
2023/01/13 14:25:46;;;;;;;38.45;4.00;;;;;;;;;;5070772;28;20052;-74
2023/01/13 14:28:12;;;;;;;39.67;9.55;;;;;;;;;;5071500;28;20025;-75
2023/01/13 14:30:38;;;;;;;24.38;3.70;;;;;;;;;;5071849;28;20051;-74
2023/01/13 14:33:05;;;;;;;23.75;4.22;;;;;;;;;;5071368;28;20024;-75
2023/01/13 14:35:31;;;;;;;31.10;3.30;;;;;;;;;;5070356;28;20103;-75
2023/01/13 14:38:03;;;;;;;26.17;3.38;;;;;;;;;;5071280;28;20063;-74
2023/01/13 14:40:35;;;;;;;22.38;3.80;;;;;;;;;;5071610;28;20459;-75
2023/01/13 14:43:10;;;;;;;25.50;4.18;;;;;;;;;;5071401;28;20036;-74
2023/01/13 14:45:36;;;;;;;25.52;3.80;;;;;;;;;;5064824;28;20139;-75
2023/01/13 14:48:07;;;;;;;25.50;3.95;;;;;;;;;;5071663;28;20060;-75
2023/01/13 14:50:34;;;;;;;31.50;4.70;;;;;;;;;;5063373;28;20032;-75
2023/01/13 14:53:00;;;;;;;28.13;3.47;;;;;;;;;;5071537;28;20358;-75
2023/01/13 14:55:33;;;;;;;25.15;3.78;;;;;;;;;;5070902;28;20040;-75
2023/01/13 14:58:23;;;;;;;23.48;4.25;;;;;;;;;;5071633;28;20019;-76
2023/01/13 15:00:49;;;;;;;23.00;3.47;;;;;;;;;;5066111;28;20021;-76
2023/01/13 15:03:16;;;;;;;13.43;2.55;;;;;;;;;;5071465;28;20032;-76
2023/01/13 15:05:52;;;;;;;18.67;3.00;;;;;;;;;;5070895;28;20482;-75
2023/01/13 15:08:29;;;;;;;16.05;3.17;;;;;;;;;;5071452;28;20028;-74
2023/01/13 15:11:05;;;;;;;21.52;3.35;;;;;;;;;;5071690;28;20112;-76
2023/01/13 15:13:34;;;;;;;29.95;3.78;;;;;;;;;;5072095;28;20111;-76
2023/01/13 15:16:01;;;;;;;26.02;4.43;;;;;;;;;;5071019;28;20021;-74
2023/01/13 15:18:27;;;;;;;21.33;3.10;;;;;;;;;;5071594;28;20020;-75
2023/01/13 15:20:53;;;;;;;23.55;4.13;;;;;;;;;;5071561;28;20607;-74
2023/01/13 15:23:20;;;;;;;23.30;3.40;;;;;;;;;;5072137;28;20025;-75
2023/01/13 15:25:46;;;;;;;21.80;3.20;;;;;;;;;;5071286;28;20029;-74
2023/01/13 15:28:22;;;;;;;22.23;3.78;;;;;;;;;;5071974;28;20127;-74
2023/01/13 15:30:49;;;;;;;21.65;4.05;;;;;;;;;;5069918;28;20020;-76
2023/01/13 15:33:15;;;;;;;17.33;3.45;;;;;;;;;;5074021;28;20039;-74
2023/01/13 15:35:43;;;;;;;12.82;2.63;;;;;;;;;;5074373;28;20021;-76
2023/01/13 15:38:10;;;;;;;21.85;2.97;;;;;;;;;;5075224;28;20108;-77
2023/01/13 15:40:36;;;;;;;19.88;3.15;;;;;;;;;;5074784;28;20032;-75
2023/01/13 15:48:32;;;;;;;13.25;2.10;;;;;;;;;;5075145;28;19955;-75
2023/01/13 15:50:59;;;;;;;14.38;2.05;;;;;;;;;;5075791;28;20032;-77
2023/01/13 15:53:24;;;;;;;5.53;1.40;;;;;;;;;;5075114;28;20078;-75
2023/01/13 15:55:53;;;;;;;6.88;1.90;;;;;;;;;;5074710;28;20417;-77